createdAt,value
2017-11-29T00:00:49.133Z,999.17
2017-11-29T00:01:49.143Z,999.17
2017-11-29T00:02:49.164Z,999.18
2017-11-29T00:03:49.179Z,999.16
2017-11-29T00:04:49.193Z,999.15
2017-11-29T00:05:49.211Z,999.18
2017-11-29T00:06:49.214Z,999.14
2017-11-29T00:07:49.234Z,999.17
2017-11-29T00:08:49.248Z,999.19
2017-11-29T00:09:49.513Z,999.18
2017-11-29T00:10:49.273Z,999.17
2017-11-29T00:11:49.289Z,999.15
2017-11-29T00:12:49.304Z,999.15
2017-11-29T00:13:49.319Z,999.15
2017-11-29T00:14:49.340Z,999.16
2017-11-29T00:15:49.342Z,999.15
2017-11-29T00:16:49.375Z,999.19
2017-11-29T00:17:49.371Z,999.14
2017-11-29T00:18:49.388Z,999.16
2017-11-29T00:19:49.402Z,999.13
2017-11-29T00:20:49.418Z,999.13
2017-11-29T00:21:49.446Z,999.17
2017-11-29T00:22:49.448Z,999.14
2017-11-29T00:23:49.452Z,999.10
2017-11-29T00:24:49.472Z,999.11
2017-11-29T00:25:49.481Z,999.16
2017-11-29T00:26:49.502Z,999.13
2017-11-29T00:27:49.518Z,999.15
2017-11-29T00:28:49.527Z,999.14
2017-11-29T00:29:49.541Z,999.12
2017-11-29T00:30:49.559Z,999.14
2017-11-29T00:31:49.578Z,999.15
2017-11-29T00:32:49.587Z,999.18
2017-11-29T00:33:49.621Z,999.17
2017-11-29T00:34:49.613Z,999.15
2017-11-29T00:35:49.627Z,999.18
2017-11-29T00:36:49.648Z,999.22
2017-11-29T00:37:49.651Z,999.18
2017-11-29T00:38:49.677Z,999.17
2017-11-29T00:39:49.980Z,999.17
2017-11-29T00:40:49.694Z,999.18
2017-11-29T00:41:49.711Z,999.18
2017-11-29T00:42:49.719Z,999.18
2017-11-29T00:43:49.741Z,999.19
2017-11-29T00:44:49.750Z,999.22
2017-11-29T00:45:49.759Z,999.15
2017-11-29T00:46:49.787Z,999.18
2017-11-29T00:47:49.796Z,999.17
2017-11-29T00:48:49.818Z,999.17
2017-11-29T00:49:49.822Z,999.20
2017-11-29T00:50:49.838Z,999.23
2017-11-29T00:51:49.857Z,999.20
2017-11-29T00:52:49.865Z,999.19
2017-11-29T00:53:49.885Z,999.25
2017-11-29T00:54:49.924Z,999.24
2017-11-29T00:55:49.898Z,999.21
2017-11-29T00:56:49.926Z,999.27
2017-11-29T00:57:49.934Z,999.24
2017-11-29T00:58:49.957Z,999.24
2017-11-29T00:59:50.259Z,999.23
2017-11-29T01:00:49.974Z,999.27
2017-11-29T01:01:49.988Z,999.24
2017-11-29T01:02:50.008Z,999.25
2017-11-29T01:03:50.018Z,999.28
2017-11-29T01:04:50.034Z,999.29
2017-11-29T01:05:50.037Z,999.29
2017-11-29T01:06:50.058Z,999.25
2017-11-29T01:07:50.073Z,999.22
2017-11-29T01:08:50.089Z,999.23
2017-11-29T01:09:50.096Z,999.26
2017-11-29T01:10:50.106Z,999.28
2017-11-29T01:11:50.132Z,999.25
2017-11-29T01:12:50.145Z,999.23
2017-11-29T01:13:50.157Z,999.26
2017-11-29T01:14:50.173Z,999.32
2017-11-29T01:15:50.175Z,999.29
2017-11-29T01:16:50.203Z,999.28
2017-11-29T01:17:50.214Z,999.30
2017-11-29T01:18:50.222Z,999.37
2017-11-29T01:19:50.237Z,999.34
2017-11-29T01:20:50.252Z,999.40
2017-11-29T01:21:50.272Z,999.34
2017-11-29T01:22:50.275Z,999.35
2017-11-29T01:23:50.284Z,999.36
2017-11-29T01:24:50.305Z,999.36
2017-11-29T01:25:50.320Z,999.36
2017-11-29T01:26:50.323Z,999.36
2017-11-29T01:27:50.351Z,999.35
2017-11-29T01:28:50.359Z,999.35
2017-11-29T01:29:50.620Z,999.35
2017-11-29T01:30:50.390Z,999.33
2017-11-29T01:31:50.393Z,999.35
2017-11-29T01:32:50.413Z,999.32
2017-11-29T01:33:50.428Z,999.32
2017-11-29T01:34:50.431Z,999.27
2017-11-29T01:35:50.475Z,999.25
2017-11-29T01:36:50.468Z,999.28
2017-11-29T01:37:50.477Z,999.31
2017-11-29T01:38:50.498Z,999.26
2017-11-29T01:39:50.500Z,999.32
2017-11-29T01:40:50.524Z,999.29
2017-11-29T01:41:50.530Z,999.27
2017-11-29T01:42:50.540Z,999.28
2017-11-29T01:43:50.570Z,999.28
2017-11-29T01:44:50.577Z,999.29
2017-11-29T01:45:50.586Z,999.27
2017-11-29T01:46:50.600Z,999.24
2017-11-29T01:47:50.616Z,999.25
2017-11-29T01:48:50.618Z,999.24
2017-11-29T01:49:50.645Z,999.23
2017-11-29T01:50:50.649Z,999.30
2017-11-29T01:51:50.658Z,999.29
2017-11-29T01:52:50.689Z,999.27
2017-11-29T01:53:50.690Z,999.28
2017-11-29T01:54:50.722Z,999.23
2017-11-29T01:55:50.761Z,999.25
2017-11-29T01:56:50.735Z,999.24
2017-11-29T01:57:50.755Z,999.24
2017-11-29T01:58:50.765Z,999.22
2017-11-29T01:59:51.023Z,999.18
2017-11-29T02:00:50.800Z,999.23
2017-11-29T02:01:50.802Z,999.17
2017-11-29T02:02:50.811Z,999.20
2017-11-29T02:03:50.826Z,999.21
2017-11-29T02:04:50.835Z,999.21
2017-11-29T02:05:50.845Z,999.25
2017-11-29T02:06:50.866Z,999.27
2017-11-29T02:07:50.881Z,999.21
2017-11-29T02:08:50.884Z,999.22
2017-11-29T02:09:50.905Z,999.24
2017-11-29T02:10:50.921Z,999.24
2017-11-29T02:11:50.924Z,999.24
2017-11-29T02:12:50.945Z,999.22
2017-11-29T02:13:50.960Z,999.23
2017-11-29T02:14:50.975Z,999.20
2017-11-29T02:15:50.991Z,999.22
2017-11-29T02:16:50.992Z,999.20
2017-11-29T02:17:51.023Z,999.21
2017-11-29T02:18:51.024Z,999.15
2017-11-29T02:19:51.037Z,999.14
2017-11-29T02:20:51.058Z,999.14
2017-11-29T02:21:51.063Z,999.17
2017-11-29T02:22:51.076Z,999.16
2017-11-29T02:23:51.088Z,999.16
2017-11-29T02:24:51.108Z,999.16
2017-11-29T02:25:51.111Z,999.14
2017-11-29T02:26:51.132Z,999.16
2017-11-29T02:27:51.146Z,999.14
2017-11-29T02:28:51.158Z,999.10
2017-11-29T02:29:51.178Z,999.12
2017-11-29T02:30:51.187Z,999.11
2017-11-29T02:31:51.196Z,999.13
2017-11-29T02:32:51.206Z,999.16
2017-11-29T02:33:51.224Z,999.15
2017-11-29T02:34:51.478Z,999.15
2017-11-29T02:35:51.239Z,999.18
2017-11-29T02:36:51.267Z,999.16
2017-11-29T02:37:51.272Z,999.19
2017-11-29T02:38:51.277Z,999.17
2017-11-29T02:39:51.297Z,999.14
2017-11-29T02:40:51.306Z,999.11
2017-11-29T02:41:51.322Z,999.10
2017-11-29T02:42:51.338Z,999.08
2017-11-29T02:43:51.351Z,999.10
2017-11-29T02:44:51.354Z,999.11
2017-11-29T02:45:51.375Z,999.13
2017-11-29T02:46:51.385Z,999.12
2017-11-29T02:47:51.394Z,999.14
2017-11-29T02:48:51.416Z,999.18
2017-11-29T02:49:51.429Z,999.12
2017-11-29T02:50:51.439Z,999.17
2017-11-29T02:51:51.443Z,999.17
2017-11-29T02:52:51.473Z,999.15
2017-11-29T02:53:51.471Z,999.13
2017-11-29T02:54:51.486Z,999.11
2017-11-29T02:55:51.502Z,999.11
2017-11-29T02:56:51.510Z,999.15
2017-11-29T02:57:51.526Z,999.24
2017-11-29T02:58:51.541Z,999.22
2017-11-29T02:59:51.550Z,999.25
2017-11-29T03:00:51.564Z,999.21
2017-11-29T03:01:51.574Z,999.22
2017-11-29T03:02:51.595Z,999.22
2017-11-29T03:03:51.597Z,999.21
2017-11-29T03:04:51.914Z,999.23
2017-11-29T03:05:51.616Z,999.23
2017-11-29T03:06:51.638Z,999.25
2017-11-29T03:07:51.658Z,999.22
2017-11-29T03:08:51.655Z,999.20
2017-11-29T03:09:51.681Z,999.22
2017-11-29T03:10:51.685Z,999.23
2017-11-29T03:11:51.694Z,999.22
2017-11-29T03:12:51.703Z,999.21
2017-11-29T03:13:51.726Z,999.20
2017-11-29T03:14:51.739Z,999.20
2017-11-29T03:15:51.749Z,999.21
2017-11-29T03:16:51.751Z,999.26
2017-11-29T03:17:51.780Z,999.24
2017-11-29T03:18:51.781Z,999.23
2017-11-29T03:19:52.098Z,999.22
2017-11-29T03:20:51.805Z,999.22
2017-11-29T03:21:51.820Z,999.22
2017-11-29T03:22:51.836Z,999.21
2017-11-29T03:23:51.838Z,999.21
2017-11-29T03:24:51.848Z,999.23
2017-11-29T03:25:51.857Z,999.24
2017-11-29T03:26:51.885Z,999.19
2017-11-29T03:27:51.892Z,999.22
2017-11-29T03:28:51.895Z,999.23
2017-11-29T03:29:51.911Z,999.22
2017-11-29T03:30:51.983Z,999.23
2017-11-29T03:31:51.935Z,999.25
2017-11-29T03:32:51.943Z,999.23
2017-11-29T03:33:51.959Z,999.24
2017-11-29T03:34:51.981Z,999.18
2017-11-29T03:35:51.982Z,999.16
2017-11-29T03:36:51.991Z,999.15
2017-11-29T03:37:52.006Z,999.14
2017-11-29T03:38:52.017Z,999.15
2017-11-29T03:39:52.039Z,999.15
2017-11-29T03:40:52.039Z,999.13
2017-11-29T03:41:52.047Z,999.14
2017-11-29T03:42:52.064Z,999.15
2017-11-29T03:43:52.085Z,999.18
2017-11-29T03:44:52.100Z,999.16
2017-11-29T03:45:52.107Z,999.18
2017-11-29T03:46:52.105Z,999.20
2017-11-29T03:47:52.127Z,999.25
2017-11-29T03:48:52.143Z,999.22
2017-11-29T03:49:52.407Z,999.21
2017-11-29T03:50:52.153Z,999.21
2017-11-29T03:51:52.181Z,999.20
2017-11-29T03:52:52.183Z,999.19
2017-11-29T03:53:52.198Z,999.20
2017-11-29T03:54:52.502Z,999.23
2017-11-29T03:55:52.228Z,999.19
2017-11-29T03:56:52.247Z,999.23
2017-11-29T03:57:52.241Z,999.25
2017-11-29T03:58:52.255Z,999.22
2017-11-29T03:59:52.266Z,999.24
2017-11-29T04:00:52.292Z,999.24
2017-11-29T04:01:52.289Z,999.24
2017-11-29T04:02:52.297Z,999.23
2017-11-29T04:03:52.306Z,999.27
2017-11-29T04:04:52.335Z,999.24
2017-11-29T04:05:52.336Z,999.28
2017-11-29T04:06:52.352Z,999.30
2017-11-29T04:07:52.366Z,999.25
2017-11-29T04:08:52.382Z,999.23
2017-11-29T04:09:52.388Z,999.31
2017-11-29T04:10:52.399Z,999.33
2017-11-29T04:11:52.403Z,999.32
2017-11-29T04:12:52.423Z,999.39
2017-11-29T04:13:52.440Z,999.35
2017-11-29T04:14:52.448Z,999.38
2017-11-29T04:15:52.456Z,999.38
2017-11-29T04:16:52.471Z,999.35
2017-11-29T04:17:52.480Z,999.33
2017-11-29T04:18:52.490Z,999.27
2017-11-29T04:19:52.504Z,999.27
2017-11-29T04:20:52.515Z,999.26
2017-11-29T04:21:52.536Z,999.25
2017-11-29T04:22:52.543Z,999.25
2017-11-29T04:23:52.546Z,999.25
2017-11-29T04:24:52.564Z,999.23
2017-11-29T04:25:52.582Z,999.24
2017-11-29T04:26:52.594Z,999.21
2017-11-29T04:27:52.595Z,999.23
2017-11-29T04:28:52.609Z,999.24
2017-11-29T04:29:52.631Z,999.24
2017-11-29T04:30:52.635Z,999.24
2017-11-29T04:31:52.649Z,999.28
2017-11-29T04:32:52.657Z,999.27
2017-11-29T04:33:52.673Z,999.26
2017-11-29T04:34:52.982Z,999.26
2017-11-29T04:35:52.690Z,999.29
2017-11-29T04:36:52.706Z,999.23
2017-11-29T04:37:52.710Z,999.24
2017-11-29T04:38:52.729Z,999.23
2017-11-29T04:39:53.045Z,999.23
2017-11-29T04:40:52.754Z,999.25
2017-11-29T04:41:52.758Z,999.27
2017-11-29T04:42:52.777Z,999.26
2017-11-29T04:43:52.793Z,999.26
2017-11-29T04:44:52.795Z,999.24
2017-11-29T04:45:52.804Z,999.21
2017-11-29T04:46:52.826Z,999.26
2017-11-29T04:47:52.855Z,999.29
2017-11-29T04:48:52.850Z,999.23
2017-11-29T04:49:52.858Z,999.26
2017-11-29T04:50:52.883Z,999.22
2017-11-29T04:51:52.888Z,999.25
2017-11-29T04:52:52.891Z,999.24
2017-11-29T04:53:52.907Z,999.28
2017-11-29T04:54:52.917Z,999.29
2017-11-29T04:55:52.930Z,999.25
2017-11-29T04:56:52.940Z,999.27
2017-11-29T04:57:52.956Z,999.25
2017-11-29T04:58:52.957Z,999.26
2017-11-29T04:59:53.229Z,999.23
2017-11-29T05:00:52.996Z,999.17
2017-11-29T05:01:52.999Z,999.18
2017-11-29T05:02:53.005Z,999.21
2017-11-29T05:03:53.021Z,999.19
2017-11-29T05:04:53.343Z,999.20
2017-11-29T05:05:53.044Z,999.16
2017-11-29T05:06:53.061Z,999.16
2017-11-29T05:07:53.066Z,999.16
2017-11-29T05:08:53.077Z,999.15
2017-11-29T05:09:53.100Z,999.15
2017-11-29T05:10:53.109Z,999.16
2017-11-29T05:11:53.115Z,999.17
2017-11-29T05:12:53.130Z,999.19
2017-11-29T05:13:53.140Z,999.20
2017-11-29T05:14:53.149Z,999.18
2017-11-29T05:15:53.164Z,999.22
2017-11-29T05:16:53.174Z,999.24
2017-11-29T05:17:53.187Z,999.22
2017-11-29T05:18:53.185Z,999.27
2017-11-29T05:19:53.446Z,999.23
2017-11-29T05:20:53.226Z,999.24
2017-11-29T05:21:53.231Z,999.26
2017-11-29T05:22:53.234Z,999.21
2017-11-29T05:23:53.242Z,999.22
2017-11-29T05:24:53.257Z,999.22
2017-11-29T05:25:53.278Z,999.23
2017-11-29T05:26:53.281Z,999.23
2017-11-29T05:27:53.297Z,999.23
2017-11-29T05:28:53.309Z,999.23
2017-11-29T05:29:53.615Z,999.26
2017-11-29T05:30:53.318Z,999.19
2017-11-29T05:31:53.344Z,999.23
2017-11-29T05:32:53.352Z,999.29
2017-11-29T05:33:53.362Z,999.27
2017-11-29T05:34:53.371Z,999.27
2017-11-29T05:35:53.379Z,999.29
2017-11-29T05:36:53.383Z,999.30
2017-11-29T05:37:53.411Z,999.29
2017-11-29T05:38:53.420Z,999.29
2017-11-29T05:39:53.427Z,999.28
2017-11-29T05:40:53.437Z,999.30
2017-11-29T05:41:53.439Z,999.32
2017-11-29T05:42:53.461Z,999.30
2017-11-29T05:43:53.476Z,999.26
2017-11-29T05:44:53.729Z,999.30
2017-11-29T05:45:53.497Z,999.33
2017-11-29T05:46:53.496Z,999.33
2017-11-29T05:47:53.506Z,999.37
2017-11-29T05:48:53.522Z,999.33
2017-11-29T05:49:53.546Z,999.33
2017-11-29T05:50:53.544Z,999.30
2017-11-29T05:51:53.560Z,999.33
2017-11-29T05:52:53.564Z,999.32
2017-11-29T05:53:53.571Z,999.34
2017-11-29T05:54:53.594Z,999.30
2017-11-29T05:55:53.608Z,999.27
2017-11-29T05:56:53.610Z,999.32
2017-11-29T05:57:53.619Z,999.30
2017-11-29T05:58:53.628Z,999.26
2017-11-29T05:59:53.654Z,999.32
2017-11-29T06:00:53.659Z,999.26
2017-11-29T06:01:53.667Z,999.23
2017-11-29T06:02:53.677Z,999.29
2017-11-29T06:03:53.691Z,999.30
2017-11-29T06:04:53.944Z,999.29
2017-11-29T06:05:53.717Z,999.32
2017-11-29T06:06:53.724Z,999.30
2017-11-29T06:07:53.740Z,999.31
2017-11-29T06:08:53.748Z,999.40
2017-11-29T06:09:53.753Z,999.38
2017-11-29T06:10:53.774Z,999.35
2017-11-29T06:11:53.788Z,999.39
2017-11-29T06:12:53.790Z,999.35
2017-11-29T06:13:53.805Z,999.39
2017-11-29T06:14:53.808Z,999.32
2017-11-29T06:15:53.836Z,999.33
2017-11-29T06:16:53.844Z,999.37
2017-11-29T06:17:53.847Z,999.34
2017-11-29T06:18:53.856Z,999.36
2017-11-29T06:19:53.871Z,999.38
2017-11-29T06:20:53.875Z,999.34
2017-11-29T06:21:53.884Z,999.39
2017-11-29T06:22:53.903Z,999.36
2017-11-29T06:23:53.913Z,999.37
2017-11-29T06:24:54.221Z,999.39
2017-11-29T06:25:53.931Z,999.40
2017-11-29T06:26:53.940Z,999.34
2017-11-29T06:27:53.949Z,999.42
2017-11-29T06:28:53.977Z,999.40
2017-11-29T06:29:53.978Z,999.39
2017-11-29T06:30:53.988Z,999.45
2017-11-29T06:31:54.006Z,999.44
2017-11-29T06:32:54.011Z,999.41
2017-11-29T06:33:54.035Z,999.47
2017-11-29T06:34:54.043Z,999.40
2017-11-29T06:35:54.059Z,999.42
2017-11-29T06:36:54.053Z,999.41
2017-11-29T06:37:54.069Z,999.43
2017-11-29T06:38:54.078Z,999.42
2017-11-29T06:39:54.084Z,999.46
2017-11-29T06:40:54.101Z,999.45
2017-11-29T06:41:54.117Z,999.47
2017-11-29T06:42:54.119Z,999.51
2017-11-29T06:43:54.135Z,999.50
2017-11-29T06:44:54.144Z,999.49
2017-11-29T06:45:54.165Z,999.50
2017-11-29T06:46:54.172Z,999.51
2017-11-29T06:47:54.177Z,999.54
2017-11-29T06:48:54.186Z,999.50
2017-11-29T06:49:54.200Z,999.50
2017-11-29T06:50:54.221Z,999.55
2017-11-29T06:51:54.230Z,999.56
2017-11-29T06:52:54.251Z,999.56
2017-11-29T06:53:54.242Z,999.52
2017-11-29T06:54:54.251Z,999.55
2017-11-29T06:55:54.266Z,999.60
2017-11-29T06:56:54.280Z,999.67
2017-11-29T06:57:54.309Z,999.62
2017-11-29T06:58:54.300Z,999.65
2017-11-29T06:59:54.309Z,999.68
2017-11-29T07:00:54.316Z,999.68
2017-11-29T07:01:54.345Z,999.67
2017-11-29T07:02:54.346Z,999.67
2017-11-29T07:03:54.359Z,999.72
2017-11-29T07:04:54.371Z,999.66
2017-11-29T07:05:54.374Z,999.69
2017-11-29T07:06:54.395Z,999.71
2017-11-29T07:07:54.404Z,999.71
2017-11-29T07:08:54.413Z,999.69
2017-11-29T07:09:54.425Z,999.70
2017-11-29T07:10:54.431Z,999.71
2017-11-29T07:11:54.442Z,999.76
2017-11-29T07:12:54.461Z,999.78
2017-11-29T07:13:54.471Z,999.75
2017-11-29T07:14:54.491Z,999.81
2017-11-29T07:15:54.488Z,999.80
2017-11-29T07:16:54.516Z,999.81
2017-11-29T07:17:54.524Z,999.83
2017-11-29T07:18:54.533Z,999.85
2017-11-29T07:19:54.792Z,999.84
2017-11-29T07:20:54.557Z,999.91
2017-11-29T07:21:54.570Z,999.88
2017-11-29T07:22:54.576Z,999.86
2017-11-29T07:23:54.584Z,999.89
2017-11-29T07:24:54.594Z,999.89
2017-11-29T07:25:54.614Z,999.88
2017-11-29T07:26:54.630Z,999.92
2017-11-29T07:27:54.632Z,999.97
2017-11-29T07:28:54.648Z,999.99
2017-11-29T07:29:54.662Z,1000.01
2017-11-29T07:30:54.677Z,1000.01
2017-11-29T07:31:54.686Z,1000.02
2017-11-29T07:32:54.695Z,1000.04
2017-11-29T07:33:54.717Z,1000.02
2017-11-29T07:34:54.725Z,1000.07
2017-11-29T07:35:54.735Z,1000.04
2017-11-29T07:36:54.737Z,1000.05
2017-11-29T07:37:54.765Z,1000.01
2017-11-29T07:38:54.774Z,1000.03
2017-11-29T07:39:55.034Z,1000.01
2017-11-29T07:40:54.791Z,1000.03
2017-11-29T07:41:54.813Z,1000.02
2017-11-29T07:42:54.821Z,1000.06
2017-11-29T07:43:54.824Z,1000.07
2017-11-29T07:44:54.832Z,1000.02
2017-11-29T07:45:54.861Z,1000.03
2017-11-29T07:46:54.863Z,1000.01
2017-11-29T07:47:54.879Z,1000.01
2017-11-29T07:48:54.888Z,1000.03
2017-11-29T07:49:54.909Z,1000.04
2017-11-29T07:50:54.918Z,1000.06
2017-11-29T07:51:54.921Z,1000.04
2017-11-29T07:52:54.941Z,1000.10
2017-11-29T07:53:54.958Z,1000.15
2017-11-29T07:54:54.966Z,1000.16
2017-11-29T07:55:54.975Z,1000.19
2017-11-29T07:56:54.978Z,1000.21
2017-11-29T07:57:55.000Z,1000.19
2017-11-29T07:58:55.014Z,1000.24
2017-11-29T07:59:55.022Z,1000.17
2017-11-29T08:00:55.038Z,1000.22
2017-11-29T08:01:55.047Z,1000.27
2017-11-29T08:02:55.062Z,1000.27
2017-11-29T08:03:55.071Z,1000.29
2017-11-29T08:04:55.086Z,1000.27
2017-11-29T08:05:55.103Z,1000.27
2017-11-29T08:06:55.103Z,1000.27
2017-11-29T08:07:55.127Z,1000.25
2017-11-29T08:08:55.147Z,1000.23
2017-11-29T08:09:55.143Z,1000.27
2017-11-29T08:10:55.166Z,1000.21
2017-11-29T08:11:55.167Z,1000.22
2017-11-29T08:12:55.189Z,1000.26
2017-11-29T08:13:55.197Z,1000.35
2017-11-29T08:14:55.200Z,1000.33
2017-11-29T08:15:55.212Z,1000.39
2017-11-29T08:16:55.229Z,1000.40
2017-11-29T08:17:55.244Z,1000.43
2017-11-29T08:18:55.247Z,1000.39
2017-11-29T08:19:55.509Z,1000.41
2017-11-29T08:20:55.285Z,1000.41
2017-11-29T08:21:55.287Z,1000.37
2017-11-29T08:22:55.296Z,1000.39
2017-11-29T08:23:55.312Z,1000.39
2017-11-29T08:24:55.333Z,1000.38
2017-11-29T08:25:55.342Z,1000.36
2017-11-29T08:26:55.354Z,1000.37
2017-11-29T08:27:55.354Z,1000.39
2017-11-29T08:28:55.374Z,1000.35
2017-11-29T08:29:55.390Z,1000.38
2017-11-29T08:30:55.392Z,1000.36
2017-11-29T08:31:55.409Z,1000.39
2017-11-29T08:32:55.422Z,1000.37
2017-11-29T08:33:55.438Z,1000.37
2017-11-29T08:34:55.447Z,1000.36
2017-11-29T08:35:55.454Z,1000.29
2017-11-29T08:36:55.470Z,1000.34
2017-11-29T08:37:55.486Z,1000.34
2017-11-29T08:38:55.494Z,1000.36
2017-11-29T08:39:55.498Z,1000.37
2017-11-29T08:40:55.518Z,1000.40
2017-11-29T08:41:55.535Z,1000.36
2017-11-29T08:42:55.536Z,1000.41
2017-11-29T08:43:55.546Z,1000.45
2017-11-29T08:44:55.567Z,1000.44
2017-11-29T08:45:55.574Z,1000.47
2017-11-29T08:46:55.585Z,1000.49
2017-11-29T08:47:55.600Z,1000.51
2017-11-29T08:48:55.614Z,1000.51
2017-11-29T08:49:55.624Z,1000.51
2017-11-29T08:50:55.638Z,1000.52
2017-11-29T08:51:55.648Z,1000.56
2017-11-29T08:52:55.662Z,1000.57
2017-11-29T08:53:55.678Z,1000.54
2017-11-29T08:54:55.688Z,1000.58
2017-11-29T08:55:55.696Z,1000.56
2017-11-29T08:56:55.710Z,1000.53
2017-11-29T08:57:55.730Z,1000.53
2017-11-29T08:58:55.728Z,1000.57
2017-11-29T08:59:55.990Z,1000.60
2017-11-29T09:00:55.766Z,1000.60
2017-11-29T09:01:55.774Z,1000.61
2017-11-29T09:02:55.777Z,1000.61
2017-11-29T09:03:55.793Z,1000.66
2017-11-29T09:04:55.806Z,1000.63
2017-11-29T09:05:55.822Z,1000.63
2017-11-29T09:06:55.843Z,1000.62
2017-11-29T09:07:55.846Z,1000.70
2017-11-29T09:08:55.866Z,1000.62
2017-11-29T09:09:55.868Z,1000.62
2017-11-29T09:10:55.872Z,1000.60
2017-11-29T09:11:55.901Z,1000.60
2017-11-29T09:12:55.903Z,1000.61
2017-11-29T09:13:55.918Z,1000.60
2017-11-29T09:14:55.921Z,1000.61
2017-11-29T09:15:55.948Z,1000.57
2017-11-29T09:16:55.957Z,1000.64
2017-11-29T09:17:55.965Z,1000.55
2017-11-29T09:18:55.969Z,1000.62
2017-11-29T09:19:55.995Z,1000.57
2017-11-29T09:20:56.006Z,1000.57
2017-11-29T09:21:56.007Z,1000.59
2017-11-29T09:22:56.024Z,1000.59
2017-11-29T09:23:56.038Z,1000.56
2017-11-29T09:24:56.053Z,1000.54
2017-11-29T09:25:56.063Z,1000.56
2017-11-29T09:26:56.084Z,1000.57
2017-11-29T09:27:56.086Z,1000.55
2017-11-29T09:28:56.101Z,1000.54
2017-11-29T09:29:56.108Z,1000.55
2017-11-29T09:30:56.133Z,1000.57
2017-11-29T09:31:56.141Z,1000.48
2017-11-29T09:32:56.149Z,1000.53
2017-11-29T09:33:56.152Z,1000.51
2017-11-29T09:34:56.174Z,1000.47
2017-11-29T09:35:56.182Z,1000.47
2017-11-29T09:36:56.191Z,1000.43
2017-11-29T09:37:56.213Z,1000.46
2017-11-29T09:38:56.221Z,1000.47
2017-11-29T09:39:56.244Z,1000.46
2017-11-29T09:40:56.249Z,1000.41
2017-11-29T09:41:56.268Z,1000.41
2017-11-29T09:42:56.275Z,1000.43
2017-11-29T09:43:56.284Z,1000.42
2017-11-29T09:44:56.305Z,1000.36
2017-11-29T09:45:56.312Z,1000.37
2017-11-29T09:46:56.326Z,1000.38
2017-11-29T09:47:56.332Z,1000.36
2017-11-29T09:48:56.349Z,1000.38
2017-11-29T09:49:56.356Z,1000.40
2017-11-29T09:50:56.366Z,1000.39
2017-11-29T09:51:56.399Z,1000.39
2017-11-29T09:52:56.400Z,1000.40
2017-11-29T09:53:56.405Z,1000.40
2017-11-29T09:54:56.414Z,1000.39
2017-11-29T09:55:56.435Z,1000.42
2017-11-29T09:56:56.463Z,1000.39
2017-11-29T09:57:56.459Z,1000.42
2017-11-29T09:58:56.474Z,1000.36
2017-11-29T09:59:56.489Z,1000.37
2017-11-29T10:00:56.499Z,1000.35
2017-11-29T10:01:56.513Z,1000.36
2017-11-29T10:02:56.522Z,1000.34
2017-11-29T10:03:56.538Z,1000.35
2017-11-29T10:04:56.541Z,1000.37
2017-11-29T10:05:56.561Z,1000.36
2017-11-29T10:06:56.571Z,1000.36
2017-11-29T10:07:56.585Z,1000.33
2017-11-29T10:08:56.607Z,1000.33
2017-11-29T10:09:56.610Z,1000.33
2017-11-29T10:10:56.625Z,1000.30
2017-11-29T10:11:56.646Z,1000.33
2017-11-29T10:12:56.649Z,1000.34
2017-11-29T10:13:56.664Z,1000.38
2017-11-29T10:14:56.683Z,1000.38
2017-11-29T10:15:56.694Z,1000.38
2017-11-29T10:16:56.703Z,1000.39
2017-11-29T10:17:56.728Z,1000.37
2017-11-29T10:18:56.726Z,1000.39
2017-11-29T10:19:56.736Z,1000.34
2017-11-29T10:20:56.763Z,1000.39
2017-11-29T10:21:56.766Z,1000.39
2017-11-29T10:22:56.775Z,1000.35
2017-11-29T10:23:56.802Z,1000.35
2017-11-29T10:24:56.811Z,1000.34
2017-11-29T10:25:56.821Z,1000.32
2017-11-29T10:26:56.837Z,1000.30
2017-11-29T10:27:56.852Z,1000.34
2017-11-29T10:28:56.859Z,1000.33
2017-11-29T10:29:56.875Z,1000.32
2017-11-29T10:30:56.891Z,1000.29
2017-11-29T10:31:56.892Z,1000.26
2017-11-29T10:32:56.915Z,1000.24
2017-11-29T10:33:56.929Z,1000.30
2017-11-29T10:34:56.939Z,1000.27
2017-11-29T10:35:56.959Z,1000.32
2017-11-29T10:36:56.963Z,1000.28
2017-11-29T10:37:56.978Z,1000.29
2017-11-29T10:38:56.992Z,1000.29
2017-11-29T10:39:57.005Z,1000.24
2017-11-29T10:40:57.012Z,1000.26
2017-11-29T10:41:57.037Z,1000.24
2017-11-29T10:42:57.041Z,1000.22
2017-11-29T10:43:57.068Z,1000.21
2017-11-29T10:44:57.077Z,1000.21
2017-11-29T10:45:57.085Z,1000.15
2017-11-29T10:46:57.108Z,1000.20
2017-11-29T10:47:57.110Z,1000.12
2017-11-29T10:48:57.125Z,1000.20
2017-11-29T10:49:57.149Z,1000.18
2017-11-29T10:50:57.148Z,1000.16
2017-11-29T10:51:57.158Z,1000.21
2017-11-29T10:52:57.185Z,1000.18
2017-11-29T10:53:57.188Z,1000.23
2017-11-29T10:54:57.216Z,1000.23
2017-11-29T10:55:57.224Z,1000.21
2017-11-29T10:56:57.227Z,1000.23
2017-11-29T10:57:57.249Z,1000.23
2017-11-29T10:58:57.263Z,1000.22
2017-11-29T10:59:57.273Z,1000.22
2017-11-29T11:00:57.287Z,1000.22
2017-11-29T11:01:57.297Z,1000.19
2017-11-29T11:02:57.323Z,1000.15
2017-11-29T11:03:57.338Z,1000.23
2017-11-29T11:04:57.343Z,1000.17
2017-11-29T11:05:57.363Z,1000.18
2017-11-29T11:06:57.366Z,1000.17
2017-11-29T11:07:57.381Z,1000.18
2017-11-29T11:08:57.396Z,1000.19
2017-11-29T11:09:57.406Z,1000.17
2017-11-29T11:10:57.427Z,1000.13
2017-11-29T11:11:57.436Z,1000.17
2017-11-29T11:12:57.449Z,1000.14
2017-11-29T11:13:57.465Z,1000.16
2017-11-29T11:14:57.482Z,1000.19
2017-11-29T11:15:57.492Z,1000.17
2017-11-29T11:16:57.511Z,1000.17
2017-11-29T11:17:57.520Z,1000.15
2017-11-29T11:18:57.541Z,1000.15
2017-11-29T11:19:57.544Z,1000.14
2017-11-29T11:20:57.570Z,1000.13
2017-11-29T11:21:57.581Z,1000.17
2017-11-29T11:22:57.584Z,1000.17
2017-11-29T11:23:57.610Z,1000.17
2017-11-29T11:24:57.620Z,1000.18
2017-11-29T11:25:57.641Z,1000.15
2017-11-29T11:26:57.651Z,1000.15
2017-11-29T11:27:57.659Z,1000.18
2017-11-29T11:28:57.680Z,1000.19
2017-11-29T11:29:57.689Z,1000.15
2017-11-29T11:30:57.706Z,1000.16
2017-11-29T11:31:57.719Z,1000.13
2017-11-29T11:32:57.729Z,1000.14
2017-11-29T11:33:57.743Z,1000.12
2017-11-29T11:34:57.755Z,1000.11
2017-11-29T11:35:57.780Z,1000.13
2017-11-29T11:36:57.789Z,1000.13
2017-11-29T11:37:57.801Z,1000.09
2017-11-29T11:38:57.813Z,1000.04
2017-11-29T11:39:57.829Z,1000.07
2017-11-29T11:40:57.844Z,1000.05
2017-11-29T11:41:57.859Z,1000.06
2017-11-29T11:42:57.868Z,1000.03
2017-11-29T11:43:57.882Z,1000.05
2017-11-29T11:44:57.898Z,1000.08
2017-11-29T11:45:57.920Z,1000.05
2017-11-29T11:46:57.930Z,1000.04
2017-11-29T11:47:57.931Z,1000.02
2017-11-29T11:48:57.952Z,1000.02
2017-11-29T11:49:57.967Z,1000.06
2017-11-29T11:50:57.982Z,1000.03
2017-11-29T11:51:57.991Z,1000.01
2017-11-29T11:52:58.013Z,1000.01
2017-11-29T11:53:58.022Z,1000.03
2017-11-29T11:54:58.038Z,1000.03
2017-11-29T11:55:58.057Z,1000.00
2017-11-29T11:56:58.061Z,1000.01
2017-11-29T11:57:58.094Z,1000.03
2017-11-29T11:58:58.097Z,1000.04
2017-11-29T11:59:58.107Z,1000.02
2017-11-29T12:00:58.121Z,999.98
2017-11-29T12:01:58.130Z,999.98
2017-11-29T12:02:58.151Z,999.99
2017-11-29T12:03:58.167Z,999.98
2017-11-29T12:04:58.187Z,999.99
2017-11-29T12:05:58.197Z,1000.00
2017-11-29T12:06:58.219Z,1000.00
2017-11-29T12:07:58.221Z,999.99
2017-11-29T12:08:58.230Z,999.91
2017-11-29T12:09:58.251Z,999.98
2017-11-29T12:10:58.260Z,999.99
2017-11-29T12:11:58.281Z,1000.00
2017-11-29T12:12:58.296Z,999.99
2017-11-29T12:13:58.351Z,999.98
2017-11-29T12:14:58.329Z,999.98
2017-11-29T12:15:58.346Z,1000.00
2017-11-29T12:16:58.351Z,1000.03
2017-11-29T12:17:58.366Z,1000.01
2017-11-29T12:18:58.388Z,1000.04
2017-11-29T12:19:58.400Z,1000.01